sensor_id;sensor_type;location;lat;lon;timestamp;pressure;altitude;pressure_sealevel;temperature;humidity
58473;BME280;44775;51.564;5.460;2023-03-05T00:01:26;101987.13;;;3.69;100.00
58473;BME280;44775;51.564;5.460;2023-03-05T00:03:54;101989.66;;;3.71;100.00
58473;BME280;44775;51.564;5.460;2023-03-05T00:06:21;101985.50;;;3.67;100.00
58473;BME280;44775;51.564;5.460;2023-03-05T00:08:48;101986.53;;;3.64;100.00
58473;BME280;44775;51.564;5.460;2023-03-05T00:11:13;101977.31;;;3.57;100.00
58473;BME280;44775;51.564;5.460;2023-03-05T00:13:39;101985.22;;;3.57;100.00
58473;BME280;44775;51.564;5.460;2023-03-05T00:16:08;101980.06;;;3.55;100.00
58473;BME280;44775;51.564;5.460;2023-03-05T00:18:34;101978.59;;;3.64;100.00
58473;BME280;44775;51.564;5.460;2023-03-05T00:20:59;101975.22;;;3.62;100.00
58473;BME280;44775;51.564;5.460;2023-03-05T00:23:25;101976.84;;;3.65;100.00
58473;BME280;44775;51.564;5.460;2023-03-05T00:25:50;101971.16;;;3.57;100.00
58473;BME280;44775;51.564;5.460;2023-03-05T00:28:16;101974.56;;;3.59;100.00
58473;BME280;44775;51.564;5.460;2023-03-05T00:30:41;101972.00;;;3.57;100.00
58473;BME280;44775;51.564;5.460;2023-03-05T00:33:07;101962.28;;;3.58;100.00
58473;BME280;44775;51.564;5.460;2023-03-05T00:35:44;101965.88;;;3.57;100.00
58473;BME280;44775;51.564;5.460;2023-03-05T00:38:11;101960.59;;;3.57;100.00
58473;BME280;44775;51.564;5.460;2023-03-05T00:40:37;101954.47;;;3.56;100.00
58473;BME280;44775;51.564;5.460;2023-03-05T00:43:03;101952.00;;;3.53;100.00
58473;BME280;44775;51.564;5.460;2023-03-05T00:45:28;101954.75;;;3.51;100.00
58473;BME280;44775;51.564;5.460;2023-03-05T00:47:53;101950.31;;;3.52;100.00
58473;BME280;44775;51.564;5.460;2023-03-05T00:50:19;101946.91;;;3.50;100.00
58473;BME280;44775;51.564;5.460;2023-03-05T00:52:44;101946.84;;;3.51;100.00
58473;BME280;44775;51.564;5.460;2023-03-05T00:55:09;101949.66;;;3.48;100.00
58473;BME280;44775;51.564;5.460;2023-03-05T00:57:35;101938.25;;;3.48;100.00
58473;BME280;44775;51.564;5.460;2023-03-05T01:00:00;101943.53;;;3.48;100.00
58473;BME280;44775;51.564;5.460;2023-03-05T01:02:25;101939.38;;;3.44;100.00
58473;BME280;44775;51.564;5.460;2023-03-05T01:04:50;101947.22;;;3.45;100.00
58473;BME280;44775;51.564;5.460;2023-03-05T01:07:16;101945.41;;;3.46;100.00
58473;BME280;44775;51.564;5.460;2023-03-05T01:09:41;101931.44;;;3.44;100.00
58473;BME280;44775;51.564;5.460;2023-03-05T01:12:06;101940.25;;;3.44;100.00
58473;BME280;44775;51.564;5.460;2023-03-05T01:14:32;101925.41;;;3.42;100.00
58473;BME280;44775;51.564;5.460;2023-03-05T01:16:58;101924.56;;;3.41;100.00
58473;BME280;44775;51.564;5.460;2023-03-05T01:19:24;101920.22;;;3.40;100.00
58473;BME280;44775;51.564;5.460;2023-03-05T01:21:49;101922.84;;;3.40;100.00
58473;BME280;44775;51.564;5.460;2023-03-05T01:24:14;101907.31;;;3.36;100.00
58473;BME280;44775;51.564;5.460;2023-03-05T01:26:39;101909.94;;;3.36;100.00
58473;BME280;44775;51.564;5.460;2023-03-05T01:29:05;101905.88;;;3.30;100.00
58473;BME280;44775;51.564;5.460;2023-03-05T01:31:30;101898.53;;;3.35;100.00
58473;BME280;44775;51.564;5.460;2023-03-05T01:33:55;101905.69;;;3.33;100.00
58473;BME280;44775;51.564;5.460;2023-03-05T01:36:21;101896.25;;;3.29;100.00
58473;BME280;44775;51.564;5.460;2023-03-05T01:38:49;101895.31;;;3.30;100.00
58473;BME280;44775;51.564;5.460;2023-03-05T01:41:16;101891.81;;;3.29;100.00
58473;BME280;44775;51.564;5.460;2023-03-05T01:43:42;101882.09;;;3.30;100.00
58473;BME280;44775;51.564;5.460;2023-03-05T01:46:27;101885.59;;;3.30;100.00
58473;BME280;44775;51.564;5.460;2023-03-05T01:49:00;101882.22;;;3.28;100.00
58473;BME280;44775;51.564;5.460;2023-03-05T01:51:31;101876.09;;;3.28;100.00
58473;BME280;44775;51.564;5.460;2023-03-05T01:53:59;101876.28;;;3.25;100.00
58473;BME280;44775;51.564;5.460;2023-03-05T01:56:26;101871.84;;;3.25;100.00
58473;BME280;44775;51.564;5.460;2023-03-05T01:58:53;101872.03;;;3.22;100.00
58473;BME280;44775;51.564;5.460;2023-03-05T02:01:18;101867.59;;;3.23;100.00
58473;BME280;44775;51.564;5.460;2023-03-05T02:03:45;101862.31;;;3.23;100.00
58473;BME280;44775;51.564;5.460;2023-03-05T02:06:11;101858.94;;;3.21;100.00
58473;BME280;44775;51.564;5.460;2023-03-05T02:08:37;101850.13;;;3.20;100.00
58473;BME280;44775;51.564;5.460;2023-03-05T02:11:02;101846.66;;;3.20;100.00
58473;BME280;44775;51.564;5.460;2023-03-05T02:13:31;101849.41;;;3.18;100.00
58473;BME280;44775;51.564;5.460;2023-03-05T02:15:57;101848.34;;;3.21;100.00
58473;BME280;44775;51.564;5.460;2023-03-05T02:18:23;101847.91;;;3.14;100.00
58473;BME280;44775;51.564;5.460;2023-03-05T02:23:21;101839.97;;;3.14;100.00
58473;BME280;44775;51.564;5.460;2023-03-05T02:25:47;101836.56;;;3.12;100.00
58473;BME280;44775;51.564;5.460;2023-03-05T02:28:22;101834.88;;;3.11;100.00
58473;BME280;44775;51.564;5.460;2023-03-05T02:30:48;101831.41;;;3.11;100.00
58473;BME280;44775;51.564;5.460;2023-03-05T02:33:16;101828.75;;;3.11;100.00
58473;BME280;44775;51.564;5.460;2023-03-05T02:35:41;101818.19;;;3.11;100.00
58473;BME280;44775;51.564;5.460;2023-03-05T02:38:12;101820.84;;;3.11;100.00
58473;BME280;44775;51.564;5.460;2023-03-05T02:40:38;101815.81;;;3.06;100.00
58473;BME280;44775;51.564;5.460;2023-03-05T02:43:04;101818.38;;;3.07;100.00
58473;BME280;44775;51.564;5.460;2023-03-05T02:45:29;101806.28;;;3.03;100.00
58473;BME280;44775;51.564;5.460;2023-03-05T02:47:55;101804.06;;;2.97;100.00
58473;BME280;44775;51.564;5.460;2023-03-05T02:50:21;101805.38;;;3.04;100.00
58473;BME280;44775;51.564;5.460;2023-03-05T02:52:46;101800.16;;;3.03;100.00
58473;BME280;44775;51.564;5.460;2023-03-05T02:55:12;101802.91;;;3.01;100.00
58473;BME280;44775;51.564;5.460;2023-03-05T02:57:37;101802.16;;;2.99;100.00
58473;BME280;44775;51.564;5.460;2023-03-05T03:00:04;101791.50;;;3.01;100.00
58473;BME280;44775;51.564;5.460;2023-03-05T03:02:29;101791.78;;;2.96;100.00
58473;BME280;44775;51.564;5.460;2023-03-05T03:04:55;101785.56;;;2.97;100.00
58473;BME280;44775;51.564;5.460;2023-03-05T03:07:20;101784.63;;;2.98;100.00
58473;BME280;44775;51.564;5.460;2023-03-05T03:09:45;101784.81;;;2.95;100.00
58473;BME280;44775;51.564;5.460;2023-03-05T03:12:11;101778.97;;;2.90;100.00
58473;BME280;44775;51.564;5.460;2023-03-05T03:14:38;101776.44;;;2.89;100.00
58473;BME280;44775;51.564;5.460;2023-03-05T03:17:13;101773.31;;;2.82;100.00
58473;BME280;44775;51.564;5.460;2023-03-05T03:19:39;101762.75;;;2.82;100.00
58473;BME280;44775;51.564;5.460;2023-03-05T03:22:05;101755.91;;;2.65;100.00
58473;BME280;44775;51.564;5.460;2023-03-05T03:24:32;101751.94;;;2.58;100.00
58473;BME280;44775;51.564;5.460;2023-03-05T03:26:57;101746.97;;;2.53;100.00
58473;BME280;44775;51.564;5.460;2023-03-05T03:29:23;101743.75;;;2.48;100.00
58473;BME280;44775;51.564;5.460;2023-03-05T03:31:48;101742.91;;;2.48;100.00
58473;BME280;44775;51.564;5.460;2023-03-05T03:34:14;101738.66;;;2.45;100.00
58473;BME280;44775;51.564;5.460;2023-03-05T03:36:44;101727.75;;;2.37;100.00
58473;BME280;44775;51.564;5.460;2023-03-05T03:39:11;101740.56;;;2.43;100.00
58473;BME280;44775;51.564;5.460;2023-03-05T03:41:41;101735.28;;;2.43;100.00
58473;BME280;44775;51.564;5.460;2023-03-05T03:44:06;101730.56;;;2.48;100.00
58473;BME280;44775;51.564;5.460;2023-03-05T03:46:33;101740.34;;;2.46;100.00
58473;BME280;44775;51.564;5.460;2023-03-05T03:48:59;101732.53;;;2.45;100.00
58473;BME280;44775;51.564;5.460;2023-03-05T03:51:24;101730.56;;;2.48;100.00
58473;BME280;44775;51.564;5.460;2023-03-05T03:53:50;101728.09;;;2.45;100.00
58473;BME280;44775;51.564;5.460;2023-03-05T03:56:15;101720.09;;;2.47;100.00
58473;BME280;44775;51.564;5.460;2023-03-05T03:58:40;101730.25;;;2.53;100.00
58473;BME280;44775;51.564;5.460;2023-03-05T04:01:06;101730.00;;;2.57;100.00
58473;BME280;44775;51.564;5.460;2023-03-05T04:03:31;101718.84;;;2.52;100.00
58473;BME280;44775;51.564;5.460;2023-03-05T04:05:56;101720.66;;;2.52;100.00
58473;BME280;44775;51.564;5.460;2023-03-05T04:08:21;101718.84;;;2.52;100.00
58473;BME280;44775;51.564;5.460;2023-03-05T04:10:47;101720.75;;;2.50;100.00
58473;BME280;44775;51.564;5.460;2023-03-05T04:13:12;101716.22;;;2.52;100.00
58473;BME280;44775;51.564;5.460;2023-03-05T04:15:37;101710.22;;;2.50;100.00
58473;BME280;44775;51.564;5.460;2023-03-05T04:18:03;101701.22;;;2.53;100.00
58473;BME280;44775;51.564;5.460;2023-03-05T04:20:28;101705.59;;;2.54;100.00
58473;BME280;44775;51.564;5.460;2023-03-05T04:22:54;101711.91;;;2.51;100.00
58473;BME280;44775;51.564;5.460;2023-03-05T04:25:19;101699.53;;;2.52;100.00
58473;BME280;44775;51.564;5.460;2023-03-05T04:27:44;101696.91;;;2.52;100.00
58473;BME280;44775;51.564;5.460;2023-03-05T04:30:12;101690.91;;;2.50;100.00
58473;BME280;44775;51.564;5.460;2023-03-05T04:32:41;101691.81;;;2.49;100.00
58473;BME280;44775;51.564;5.460;2023-03-05T04:35:06;101689.94;;;2.51;100.00
58473;BME280;44775;51.564;5.460;2023-03-05T04:37:32;101685.63;;;2.50;100.00
58473;BME280;44775;51.564;5.460;2023-03-05T04:39:57;101683.06;;;2.48;100.00
58473;BME280;44775;51.564;5.460;2023-03-05T04:42:22;101683.81;;;2.50;100.00
58473;BME280;44775;51.564;5.460;2023-03-05T04:44:48;101684.84;;;2.48;100.00
58473;BME280;44775;51.564;5.460;2023-03-05T04:47:15;101686.53;;;2.49;100.00
58473;BME280;44775;51.564;5.460;2023-03-05T04:49:40;101682.31;;;2.46;100.00
58473;BME280;44775;51.564;5.460;2023-03-05T04:52:06;101686.34;;;2.52;100.00
58473;BME280;44775;51.564;5.460;2023-03-05T04:54:32;101678.44;;;2.52;100.00
58473;BME280;44775;51.564;5.460;2023-03-05T04:56:57;101671.75;;;2.46;100.00
58473;BME280;44775;51.564;5.460;2023-03-05T04:59:22;101686.28;;;2.53;100.00
58473;BME280;44775;51.564;5.460;2023-03-05T05:01:48;101676.75;;;2.51;100.00
58473;BME280;44775;51.564;5.460;2023-03-05T05:04:13;101671.56;;;2.49;100.00
58473;BME280;44775;51.564;5.460;2023-03-05T05:06:38;101673.28;;;2.50;100.00
58473;BME280;44775;51.564;5.460;2023-03-05T05:09:03;101662.16;;;2.45;100.00
58473;BME280;44775;51.564;5.460;2023-03-05T05:11:29;101671.19;;;2.55;100.00
58473;BME280;44775;51.564;5.460;2023-03-05T05:13:54;101659.13;;;2.51;100.00
58473;BME280;44775;51.564;5.460;2023-03-05T05:16:19;101653.84;;;2.51;100.00
58473;BME280;44775;51.564;5.460;2023-03-05T05:18:44;101647.47;;;2.41;100.00
58473;BME280;44775;51.564;5.460;2023-03-05T05:21:12;101661.13;;;2.48;100.00
58473;BME280;44775;51.564;5.460;2023-03-05T05:23:38;101652.56;;;2.44;100.00
58473;BME280;44775;51.564;5.460;2023-03-05T05:26:05;101653.09;;;2.49;100.00
58473;BME280;44775;51.564;5.460;2023-03-05T05:28:32;101648.97;;;2.45;100.00
58473;BME280;44775;51.564;5.460;2023-03-05T05:30:57;101654.16;;;2.47;100.00
58473;BME280;44775;51.564;5.460;2023-03-05T05:33:23;101651.03;;;2.54;100.00
58473;BME280;44775;51.564;5.460;2023-03-05T05:35:49;101647.09;;;2.47;100.00
58473;BME280;44775;51.564;5.460;2023-03-05T05:38:14;101650.38;;;2.51;100.00
58473;BME280;44775;51.564;5.460;2023-03-05T05:40:39;101648.69;;;2.50;100.00
58473;BME280;44775;51.564;5.460;2023-03-05T05:43:05;101642.25;;;2.54;100.00
58473;BME280;44775;51.564;5.460;2023-03-05T05:45:30;101648.56;;;2.51;100.00
58473;BME280;44775;51.564;5.460;2023-03-05T05:47:56;101640.00;;;2.48;100.00
58473;BME280;44775;51.564;5.460;2023-03-05T05:50:21;101638.97;;;2.50;100.00
58473;BME280;44775;51.564;5.460;2023-03-05T05:52:47;101634.63;;;2.49;100.00
58473;BME280;44775;51.564;5.460;2023-03-05T05:55:12;101631.25;;;2.47;100.00
58473;BME280;44775;51.564;5.460;2023-03-05T05:57:38;101628.69;;;2.46;100.00
58473;BME280;44775;51.564;5.460;2023-03-05T06:00:06;101622.56;;;2.45;100.00
58473;BME280;44775;51.564;5.460;2023-03-05T06:02:31;101620.69;;;2.47;100.00
58473;BME280;44775;51.564;5.460;2023-03-05T06:04:56;101630.31;;;2.48;100.00
58473;BME280;44775;51.564;5.460;2023-03-05T06:07:22;101623.41;;;2.46;100.00
58473;BME280;44775;51.564;5.460;2023-03-05T06:09:47;101621.53;;;2.48;100.00
58473;BME280;44775;51.564;5.460;2023-03-05T06:12:13;101615.44;;;2.47;100.00
58473;BME280;44775;51.564;5.460;2023-03-05T06:14:38;101619.56;;;2.51;100.00
58473;BME280;44775;51.564;5.460;2023-03-05T06:17:03;101625.59;;;2.53;100.00
58473;BME280;44775;51.564;5.460;2023-03-05T06:19:29;101621.41;;;2.64;100.00
58473;BME280;44775;51.564;5.460;2023-03-05T06:21:54;101618.22;;;2.58;100.00
58473;BME280;44775;51.564;5.460;2023-03-05T06:24:19;101619.16;;;2.57;100.00
58473;BME280;44775;51.564;5.460;2023-03-05T06:26:46;101619.91;;;2.59;100.00
58473;BME280;44775;51.564;5.460;2023-03-05T06:29:12;101615.38;;;2.62;100.00
58473;BME280;44775;51.564;5.460;2023-03-05T06:31:38;101619.81;;;2.61;100.00
58473;BME280;44775;51.564;5.460;2023-03-05T06:34:03;101618.03;;;2.62;100.00
58473;BME280;44775;51.564;5.460;2023-03-05T06:36:29;101614.63;;;2.59;100.00
58473;BME280;44775;51.564;5.460;2023-03-05T06:38:55;101620.78;;;2.60;100.00
58473;BME280;44775;51.564;5.460;2023-03-05T06:41:26;101619.91;;;2.59;100.00
58473;BME280;44775;51.564;5.460;2023-03-05T06:43:52;101616.41;;;2.59;100.00
58473;BME280;44775;51.564;5.460;2023-03-05T06:46:19;101617.19;;;2.61;100.00
58473;BME280;44775;51.564;5.460;2023-03-05T06:48:45;101612.94;;;2.58;100.00
58473;BME280;44775;51.564;5.460;2023-03-05T06:51:19;101614.44;;;2.63;100.00
58473;BME280;44775;51.564;5.460;2023-03-05T06:53:46;101616.22;;;2.62;100.00
58473;BME280;44775;51.564;5.460;2023-03-05T06:56:13;101615.38;;;2.62;100.00
58473;BME280;44775;51.564;5.460;2023-03-05T06:58:40;101610.88;;;2.64;100.00
58473;BME280;44775;51.564;5.460;2023-03-05T07:01:06;101616.88;;;2.66;100.00
58473;BME280;44775;51.564;5.460;2023-03-05T07:03:33;101611.41;;;2.69;100.00
58473;BME280;44775;51.564;5.460;2023-03-05T07:06:02;101613.72;;;2.73;100.00
58473;BME280;44775;51.564;5.460;2023-03-05T07:08:27;101608.56;;;2.72;100.00
58473;BME280;44775;51.564;5.460;2023-03-05T07:10:52;101613.44;;;2.78;100.00
58473;BME280;44775;51.564;5.460;2023-03-05T07:13:18;101611.78;;;2.77;100.00
58473;BME280;44775;51.564;5.460;2023-03-05T07:15:43;101609.84;;;2.79;100.00
58473;BME280;44775;51.564;5.460;2023-03-05T07:18:08;101613.72;;;2.88;100.00
58473;BME280;44775;51.564;5.460;2023-03-05T07:20:34;101610.22;;;2.87;100.00
58473;BME280;44775;51.564;5.460;2023-03-05T07:23:00;101613.50;;;2.91;100.00
58473;BME280;44775;51.564;5.460;2023-03-05T07:25:26;101605.28;;;2.95;100.00
58473;BME280;44775;51.564;5.460;2023-03-05T07:27:51;101594.72;;;2.95;100.00
58473;BME280;44775;51.564;5.460;2023-03-05T07:30:17;101594.50;;;2.98;100.00
58473;BME280;44775;51.564;5.460;2023-03-05T07:32:42;101595.59;;;3.08;100.00
58473;BME280;44775;51.564;5.460;2023-03-05T07:35:08;101596.03;;;3.15;100.00
58473;BME280;44775;51.564;5.460;2023-03-05T07:37:33;101598.06;;;3.24;100.00
58473;BME280;44775;51.564;5.460;2023-03-05T07:39:59;101597.44;;;3.34;100.00
58473;BME280;44775;51.564;5.460;2023-03-05T07:42:24;101595.00;;;3.43;100.00
58473;BME280;44775;51.564;5.460;2023-03-05T07:44:50;101603.38;;;3.50;100.00
58473;BME280;44775;51.564;5.460;2023-03-05T07:47:15;101598.63;;;3.55;100.00
58473;BME280;44775;51.564;5.460;2023-03-05T07:49:41;101602.22;;;3.54;100.00
58473;BME280;44775;51.564;5.460;2023-03-05T07:52:07;101592.50;;;3.54;100.00
58473;BME280;44775;51.564;5.460;2023-03-05T07:54:33;101593.78;;;3.62;100.00
58473;BME280;44775;51.564;5.460;2023-03-05T07:57:05;101594.50;;;3.76;100.00
58473;BME280;44775;51.564;5.460;2023-03-05T07:59:30;101594.81;;;3.85;100.00
58473;BME280;44775;51.564;5.460;2023-03-05T08:01:56;101589.44;;;3.86;100.00
58473;BME280;44775;51.564;5.460;2023-03-05T08:04:22;101590.34;;;3.98;100.00
58473;BME280;44775;51.564;5.460;2023-03-05T08:06:47;101592.38;;;4.07;100.00
58473;BME280;44775;51.564;5.460;2023-03-05T08:09:14;101590.44;;;4.22;100.00
58473;BME280;44775;51.564;5.460;2023-03-05T08:11:39;101591.28;;;4.22;100.00
58473;BME280;44775;51.564;5.460;2023-03-05T08:14:05;101585.66;;;4.27;100.00
58473;BME280;44775;51.564;5.460;2023-03-05T08:16:30;101583.94;;;4.39;100.00
58473;BME280;44775;51.564;5.460;2023-03-05T08:18:57;101577.34;;;4.44;100.00
58473;BME280;44775;51.564;5.460;2023-03-05T08:21:24;101581.69;;;4.45;100.00
58473;BME280;44775;51.564;5.460;2023-03-05T08:23:56;101581.75;;;4.57;100.00
58473;BME280;44775;51.564;5.460;2023-03-05T08:26:25;101582.78;;;4.67;100.00
58473;BME280;44775;51.564;5.460;2023-03-05T08:28:51;101579.22;;;4.79;100.00
58473;BME280;44775;51.564;5.460;2023-03-05T08:31:18;101579.56;;;4.74;100.00
58473;BME280;44775;51.564;5.460;2023-03-05T08:33:46;101560.81;;;4.78;100.00
58473;BME280;44775;51.564;5.460;2023-03-05T08:36:11;101570.75;;;4.98;100.00
58473;BME280;44775;51.564;5.460;2023-03-05T08:38:37;101562.00;;;5.09;100.00
58473;BME280;44775;51.564;5.460;2023-03-05T08:41:03;101561.22;;;5.31;100.00
58473;BME280;44775;51.564;5.460;2023-03-05T08:43:29;101566.81;;;5.50;100.00
58473;BME280;44775;51.564;5.460;2023-03-05T08:45:55;101564.31;;;5.71;100.00
58473;BME280;44775;51.564;5.460;2023-03-05T08:48:20;101560.94;;;5.91;100.00
58473;BME280;44775;51.564;5.460;2023-03-05T08:50:46;101559.41;;;6.11;100.00
58473;BME280;44775;51.564;5.460;2023-03-05T08:53:11;101552.97;;;6.25;100.00
58473;BME280;44775;51.564;5.460;2023-03-05T08:55:37;101560.22;;;6.23;100.00
58473;BME280;44775;51.564;5.460;2023-03-05T08:58:02;101559.72;;;6.29;100.00
58473;BME280;44775;51.564;5.460;2023-03-05T09:00:28;101553.34;;;6.32;100.00
58473;BME280;44775;51.564;5.460;2023-03-05T09:02:53;101553.56;;;6.29;100.00
58473;BME280;44775;51.564;5.460;2023-03-05T09:05:18;101547.81;;;6.12;100.00
58473;BME280;44775;51.564;5.460;2023-03-05T09:07:44;101549.38;;;6.04;100.00
58473;BME280;44775;51.564;5.460;2023-03-05T09:10:10;101549.50;;;6.02;100.00
58473;BME280;44775;51.564;5.460;2023-03-05T09:12:38;101546.13;;;6.11;100.00
58473;BME280;44775;51.564;5.460;2023-03-05T09:15:07;101542.00;;;6.07;100.00
58473;BME280;44775;51.564;5.460;2023-03-05T09:17:37;101546.25;;;6.21;100.00
58473;BME280;44775;51.564;5.460;2023-03-05T09:20:04;101545.13;;;6.35;100.00
58473;BME280;44775;51.564;5.460;2023-03-05T09:22:30;101538.94;;;6.46;100.00
58473;BME280;44775;51.564;5.460;2023-03-05T09:24:55;101535.09;;;6.71;100.00
58473;BME280;44775;51.564;5.460;2023-03-05T09:27:21;101531.56;;;6.81;100.00
58473;BME280;44775;51.564;5.460;2023-03-05T09:29:47;101529.56;;;6.95;100.00
58473;BME280;44775;51.564;5.460;2023-03-05T09:32:12;101530.81;;;7.12;100.00
58473;BME280;44775;51.564;5.460;2023-03-05T09:34:38;101530.38;;;7.06;99.56
58473;BME280;44775;51.564;5.460;2023-03-05T09:37:03;101528.94;;;7.23;100.00
58473;BME280;44775;51.564;5.460;2023-03-05T09:39:28;101524.00;;;7.40;95.28
58473;BME280;44775;51.564;5.460;2023-03-05T09:45:22;101518.97;;;7.67;92.57
58473;BME280;44775;51.564;5.460;2023-03-05T09:48:11;101519.66;;;7.69;93.69
58473;BME280;44775;51.564;5.460;2023-03-05T09:50:43;101514.63;;;7.66;93.73
58473;BME280;44775;51.564;5.460;2023-03-05T09:55:54;101520.38;;;7.71;89.47
58473;BME280;44775;51.564;5.460;2023-03-05T09:58:53;101519.00;;;7.77;92.79
58473;BME280;44775;51.564;5.460;2023-03-05T10:01:22;101513.19;;;7.62;88.15
58473;BME280;44775;51.564;5.460;2023-03-05T10:04:12;101520.78;;;7.67;91.36
58473;BME280;44775;51.564;5.460;2023-03-05T10:07:29;101512.25;;;7.42;91.07
58473;BME280;44775;51.564;5.460;2023-03-05T10:09:44;101512.38;;;7.41;92.78
58473;BME280;44775;51.564;5.460;2023-03-05T10:12:19;101510.78;;;7.59;92.75
58473;BME280;44775;51.564;5.460;2023-03-05T10:14:48;101502.88;;;7.78;89.59
58473;BME280;44775;51.564;5.460;2023-03-05T10:20:40;101499.63;;;8.15;89.02
58473;BME280;44775;51.564;5.460;2023-03-05T10:44:47;101487.69;;;7.08;92.51
58473;BME280;44775;51.564;5.460;2023-03-05T10:47:23;101482.31;;;6.77;97.35
58473;BME280;44775;51.564;5.460;2023-03-05T10:49:52;101480.94;;;6.30;100.00
58473;BME280;44775;51.564;5.460;2023-03-05T10:52:26;101462.66;;;6.15;100.00
58473;BME280;44775;51.564;5.460;2023-03-05T10:54:52;101471.72;;;6.02;100.00
58473;BME280;44775;51.564;5.460;2023-03-05T10:57:23;101464.81;;;6.22;100.00
58473;BME280;44775;51.564;5.460;2023-03-05T10:59:53;101454.53;;;6.28;100.00
58473;BME280;44775;51.564;5.460;2023-03-05T11:02:21;101453.06;;;6.56;100.00
58473;BME280;44775;51.564;5.460;2023-03-05T11:04:48;101457.72;;;6.75;100.00
58473;BME280;44775;51.564;5.460;2023-03-05T11:09:39;101453.16;;;7.08;100.00
58473;BME280;44775;51.564;5.460;2023-03-05T11:12:20;101449.19;;;7.54;100.00
58473;BME280;44775;51.564;5.460;2023-03-05T11:15:02;101444.13;;;8.01;100.00
58473;BME280;44775;51.564;5.460;2023-03-05T11:25:54;101429.56;;;9.39;87.66
58473;BME280;44775;51.564;5.460;2023-03-05T11:33:53;101419.00;;;10.21;76.14
58473;BME280;44775;51.564;5.460;2023-03-05T11:36:28;101423.81;;;10.17;74.10
58473;BME280;44775;51.564;5.460;2023-03-05T11:41:35;101420.59;;;10.49;72.65
58473;BME280;44775;51.564;5.460;2023-03-05T11:44:03;101420.59;;;10.49;71.31
58473;BME280;44775;51.564;5.460;2023-03-05T11:46:40;101411.97;;;10.20;69.08
58473;BME280;44775;51.564;5.460;2023-03-05T11:49:06;101420.78;;;10.02;68.96
58473;BME280;44775;51.564;5.460;2023-03-05T11:54:09;101408.50;;;9.46;68.19
58473;BME280;44775;51.564;5.460;2023-03-05T11:56:36;101403.94;;;9.29;71.24
58473;BME280;44775;51.564;5.460;2023-03-05T11:59:16;101400.06;;;9.13;71.93
58473;BME280;44775;51.564;5.460;2023-03-05T12:01:51;101391.19;;;8.75;71.32
58473;BME280;44775;51.564;5.460;2023-03-05T12:04:18;101385.88;;;8.46;72.50
58473;BME280;44775;51.564;5.460;2023-03-05T12:06:50;101375.78;;;8.31;72.58
58473;BME280;44775;51.564;5.460;2023-03-05T12:09:40;101380.25;;;8.30;73.71
58473;BME280;44775;51.564;5.460;2023-03-05T12:12:31;101367.94;;;8.48;76.18
58473;BME280;44775;51.564;5.460;2023-03-05T12:18:05;101359.75;;;8.79;74.24
58473;BME280;44775;51.564;5.460;2023-03-05T12:23:10;101355.53;;;8.86;71.23
58473;BME280;44775;51.564;5.460;2023-03-05T12:28:15;101338.72;;;9.13;70.78
58473;BME280;44775;51.564;5.460;2023-03-05T12:33:30;101326.97;;;9.34;68.87
58473;BME280;44775;51.564;5.460;2023-03-05T12:38:39;101326.75;;;9.73;67.04
58473;BME280;44775;51.564;5.460;2023-03-05T12:46:37;101314.34;;;10.25;62.46
58473;BME280;44775;51.564;5.460;2023-03-05T12:51:53;101307.81;;;9.84;62.69
58473;BME280;44775;51.564;5.460;2023-03-05T12:54:36;101295.38;;;10.10;62.70
58473;BME280;44775;51.564;5.460;2023-03-05T12:57:16;101293.78;;;9.82;62.72
58473;BME280;44775;51.564;5.460;2023-03-05T12:59:47;101288.22;;;9.57;62.90
58473;BME280;44775;51.564;5.460;2023-03-05T13:02:42;101278.91;;;9.61;62.69
58473;BME280;44775;51.564;5.460;2023-03-05T13:05:33;101276.00;;;9.55;62.67
58473;BME280;44775;51.564;5.460;2023-03-05T13:08:24;101273.72;;;9.42;62.49
58473;BME280;44775;51.564;5.460;2023-03-05T13:10:56;101262.72;;;9.27;61.86
58473;BME280;44775;51.564;5.460;2023-03-05T13:13:25;101258.69;;;9.23;60.64
58473;BME280;44775;51.564;5.460;2023-03-05T13:15:51;101253.38;;;9.41;61.07
58473;BME280;44775;51.564;5.460;2023-03-05T13:18:30;101249.03;;;9.58;60.91
58473;BME280;44775;51.564;5.460;2023-03-05T13:21:04;101243.94;;;10.08;60.43
58473;BME280;44775;51.564;5.460;2023-03-05T13:23:32;101255.78;;;10.50;57.27
58473;BME280;44775;51.564;5.460;2023-03-05T13:26:18;101248.75;;;10.83;58.83
58473;BME280;44775;51.564;5.460;2023-03-05T13:29:01;101245.94;;;11.35;56.77
58473;BME280;44775;51.564;5.460;2023-03-05T13:31:27;101249.16;;;11.63;53.35
58473;BME280;44775;51.564;5.460;2023-03-05T13:33:55;101246.00;;;11.68;53.71
58473;BME280;44775;51.564;5.460;2023-03-05T13:36:21;101245.88;;;12.02;56.47
58473;BME280;44775;51.564;5.460;2023-03-05T13:38:48;101230.94;;;11.91;52.41
58473;BME280;44775;51.564;5.460;2023-03-05T13:43:44;101222.94;;;11.99;53.25
58473;BME280;44775;51.564;5.460;2023-03-05T13:46:10;101224.22;;;11.71;49.76
58473;BME280;44775;51.564;5.460;2023-03-05T13:48:36;101218.19;;;11.44;51.02
58473;BME280;44775;51.564;5.460;2023-03-05T13:51:01;101211.47;;;11.32;51.57
58473;BME280;44775;51.564;5.460;2023-03-05T13:53:31;101216.09;;;10.97;53.66
58473;BME280;44775;51.564;5.460;2023-03-05T13:56:06;101208.81;;;10.73;53.27
58473;BME280;44775;51.564;5.460;2023-03-05T13:58:45;101202.84;;;10.01;54.25
58473;BME280;44775;51.564;5.460;2023-03-05T14:03:57;101187.44;;;9.33;54.28
58473;BME280;44775;51.564;5.460;2023-03-05T14:06:25;101188.81;;;9.37;57.87
58473;BME280;44775;51.564;5.460;2023-03-05T14:08:56;101181.50;;;9.39;58.23
58473;BME280;44775;51.564;5.460;2023-03-05T14:11:24;101172.97;;;9.36;58.60
58473;BME280;44775;51.564;5.460;2023-03-05T14:13:59;101181.88;;;9.44;60.15
58473;BME280;44775;51.564;5.460;2023-03-05T14:16:26;101178.63;;;9.33;59.08
58473;BME280;44775;51.564;5.460;2023-03-05T14:19:01;101181.50;;;9.39;58.75